createdAt,value
2023-03-23T16:01:31.848Z,4.83
2023-03-23T16:06:35.784Z,5.13
2023-03-23T16:11:38.318Z,3.13
2023-03-23T16:16:53.413Z,6.87
2023-03-23T16:21:56.066Z,4.40
2023-03-23T16:26:58.398Z,4.13
2023-03-23T16:32:00.947Z,4.77
2023-03-23T16:37:03.254Z,6.37
2023-03-23T16:42:05.552Z,5.63
2023-03-23T16:47:07.801Z,13.13
2023-03-23T16:52:10.562Z,17.57
2023-03-23T16:57:13.119Z,12.10
2023-03-23T17:02:15.649Z,5.43
2023-03-23T17:07:18.194Z,10.67
2023-03-23T17:12:20.945Z,8.03
2023-03-23T17:17:24.786Z,14.20
2023-03-23T17:22:27.797Z,6.60
2023-03-23T17:27:30.072Z,8.57
2023-03-23T17:32:32.837Z,6.20
2023-03-23T17:37:36.227Z,6.13
2023-03-23T17:42:39.235Z,4.23
2023-03-23T17:47:41.616Z,7.77
2023-03-23T17:52:44.152Z,14.07
2023-03-23T17:57:46.511Z,12.47
2023-03-23T18:02:49.048Z,6.67
2023-03-23T18:07:51.495Z,24.17
2023-03-23T18:12:53.891Z,6.50
2023-03-23T18:17:57.880Z,7.80
2023-03-23T18:23:00.389Z,7.87
2023-03-23T18:28:04.839Z,4.77
2023-03-23T18:33:09.420Z,7.90
2023-03-23T18:38:12.973Z,8.90
2023-03-23T18:43:15.290Z,8.83
2023-03-23T18:48:18.024Z,9.23
2023-03-23T18:53:21.412Z,6.17
2023-03-23T18:58:23.703Z,5.30
2023-03-23T19:03:26.130Z,4.10
2023-03-23T19:08:30.115Z,4.43
2023-03-23T19:13:37.562Z,5.97
2023-03-23T19:18:41.831Z,4.80
2023-03-23T19:23:44.174Z,9.93
2023-03-23T19:29:23.302Z,16.77
2023-03-23T19:34:09.672Z,17.80
2023-03-23T19:39:12.643Z,6.67
2023-03-23T19:44:15.009Z,6.90
2023-03-23T19:49:18.150Z,12.33
2023-03-23T19:54:20.666Z,10.03
2023-03-23T19:59:23.001Z,10.67
2023-03-23T20:04:25.749Z,5.67
2023-03-23T20:09:28.541Z,8.77
2023-03-23T20:14:31.201Z,25.00
2023-03-23T20:19:36.647Z,10.33
2023-03-23T20:24:39.062Z,58.37
2023-03-23T20:29:42.016Z,50.30
2023-03-23T20:34:49.247Z,78.60
2023-03-23T20:39:51.648Z,43.97
2023-03-23T20:44:54.025Z,60.53
2023-03-23T20:49:56.550Z,56.87
2023-03-23T20:54:58.984Z,30.37
2023-03-23T21:00:02.557Z,26.27
2023-03-23T21:05:05.191Z,18.10
2023-03-23T21:10:07.548Z,16.97
2023-03-23T21:15:10.094Z,22.67
2023-03-23T21:20:13.748Z,14.50
2023-03-23T21:25:16.635Z,11.93
2023-03-23T21:30:19.729Z,9.30
2023-03-23T21:35:22.656Z,7.03
2023-03-23T21:40:27.074Z,20.37
2023-03-23T21:45:29.377Z,23.53
2023-03-23T21:50:35.726Z,10.47
2023-03-23T21:55:39.078Z,8.57
2023-03-23T22:00:41.496Z,11.33
2023-03-23T22:05:43.964Z,19.30
2023-03-23T22:11:00.438Z,27.43
2023-03-23T22:16:06.842Z,22.20
2023-03-23T22:21:10.200Z,15.60
2023-03-23T22:26:13.930Z,31.77
2023-03-23T22:31:22.429Z,20.33
2023-03-23T22:36:26.872Z,20.83
2023-03-23T22:41:36.829Z,24.30
2023-03-23T22:46:40.291Z,42.03
2023-03-23T22:51:42.686Z,67.33
2023-03-23T22:56:45.064Z,49.43
2023-03-23T23:01:47.446Z,25.10
2023-03-23T23:06:50.930Z,55.13
2023-03-23T23:11:55.866Z,41.40
2023-03-23T23:16:58.289Z,33.90
2023-03-23T23:22:12.591Z,92.10
2023-03-23T23:27:20.694Z,57.20
2023-03-23T23:32:23.068Z,35.30
2023-03-23T23:37:25.428Z,22.60
2023-03-23T23:42:27.769Z,23.30
2023-03-23T23:47:30.371Z,19.67
2023-03-23T23:52:32.962Z,19.57
2023-03-23T23:57:35.772Z,33.43
